createdAt,value
2023-06-29T00:00:51.618Z,16.70
2023-06-29T00:05:56.811Z,16.70
2023-06-29T00:10:58.550Z,16.60
2023-06-29T00:16:00.897Z,16.60
2023-06-29T00:21:04.687Z,16.50
2023-06-29T00:26:06.515Z,16.50
2023-06-29T00:31:08.519Z,16.40
2023-06-29T00:36:10.546Z,16.40
2023-06-29T00:41:12.353Z,16.30
2023-06-29T00:46:18.837Z,16.20
2023-06-29T00:51:21.414Z,16.20
2023-06-29T00:56:23.307Z,16.20
2023-06-29T01:01:25.271Z,16.10
2023-06-29T01:06:31.530Z,16.10
2023-06-29T01:11:35.760Z,16.10
2023-06-29T01:16:38.307Z,16.10
2023-06-29T01:21:55.999Z,16.10
2023-06-29T01:26:57.971Z,16.20
2023-06-29T01:32:05.090Z,16.20
2023-06-29T01:37:15.829Z,16.10
2023-06-29T01:42:20.970Z,16.10
2023-06-29T01:47:23.823Z,16.10
2023-06-29T01:52:26.783Z,16.20
2023-06-29T01:57:28.815Z,16.20
2023-06-29T02:02:31.477Z,16.30
2023-06-29T02:07:33.598Z,16.30
2023-06-29T02:12:35.499Z,16.40
2023-06-29T02:17:37.461Z,16.50
2023-06-29T02:22:39.345Z,16.60
2023-06-29T02:27:41.338Z,16.70
2023-06-29T02:32:43.406Z,16.80
2023-06-29T02:37:45.297Z,16.80
2023-06-29T02:42:47.288Z,16.90
2023-06-29T02:47:49.079Z,17.00
2023-06-29T02:52:50.993Z,17.00
2023-06-29T02:57:53.029Z,17.20
2023-06-29T03:02:55.141Z,17.50
2023-06-29T03:07:56.956Z,17.70
2023-06-29T03:12:58.945Z,17.90
2023-06-29T03:18:00.892Z,18.20
2023-06-29T03:23:02.809Z,18.60
2023-06-29T03:28:04.853Z,18.90
2023-06-29T03:33:06.700Z,19.20
2023-06-29T03:38:10.837Z,19.40
2023-06-29T03:43:12.607Z,19.70
2023-06-29T03:48:14.610Z,19.80
2023-06-29T03:53:16.451Z,20.10
2023-06-29T03:58:18.471Z,20.30
2023-06-29T04:03:20.417Z,20.80
2023-06-29T04:08:22.324Z,21.50
2023-06-29T04:13:24.205Z,22.90
2023-06-29T04:18:25.972Z,23.20
2023-06-29T04:23:27.819Z,22.80
2023-06-29T04:28:36.100Z,22.90
2023-06-29T04:33:37.851Z,23.60
2023-06-29T04:38:39.830Z,24.00
2023-06-29T04:43:41.866Z,23.20
2023-06-29T04:48:47.747Z,22.80
2023-06-29T04:53:49.563Z,22.80
2023-06-29T04:58:51.372Z,22.60
2023-06-29T05:03:53.220Z,22.70
2023-06-29T05:08:55.165Z,22.90
2023-06-29T05:13:56.977Z,23.30
2023-06-29T05:18:58.960Z,24.70
2023-06-29T05:24:00.795Z,24.50
2023-06-29T05:29:05.567Z,24.10
2023-06-29T05:34:07.787Z,24.40
2023-06-29T05:39:09.883Z,25.50
2023-06-29T05:44:11.885Z,25.30
2023-06-29T05:49:13.704Z,26.00
2023-06-29T05:54:15.501Z,27.00
2023-06-29T05:59:17.247Z,31.40
2023-06-29T06:04:19.065Z,34.40
2023-06-29T06:09:20.969Z,33.90
2023-06-29T06:14:22.866Z,36.10
2023-06-29T06:19:24.704Z,36.80
2023-06-29T06:24:26.466Z,38.10
2023-06-29T06:29:28.743Z,38.40
2023-06-29T06:34:31.931Z,37.50
2023-06-29T06:39:34.239Z,37.00
2023-06-29T06:44:37.812Z,37.40
2023-06-29T06:49:41.596Z,39.70
2023-06-29T06:54:43.408Z,40.20
2023-06-29T06:59:45.751Z,41.00
2023-06-29T07:04:48.203Z,41.60
2023-06-29T07:09:49.997Z,37.80
2023-06-29T07:14:51.785Z,39.20
2023-06-29T07:24:58.546Z,39.40
2023-06-29T07:30:00.304Z,36.30
2023-06-29T07:35:02.204Z,36.90
2023-06-29T07:40:05.672Z,38.30
2023-06-29T07:45:09.023Z,39.50
2023-06-29T07:50:12.076Z,39.10
2023-06-29T07:55:14.179Z,37.60
2023-06-29T08:00:20.116Z,37.10
2023-06-29T08:10:28.012Z,41.00
2023-06-29T08:15:29.792Z,42.70
2023-06-29T08:20:31.837Z,42.10
2023-06-29T08:25:33.793Z,40.60
2023-06-29T08:30:35.657Z,40.10
2023-06-29T08:35:37.550Z,39.70
2023-06-29T08:40:40.906Z,40.70
2023-06-29T08:45:48.725Z,41.80
2023-06-29T08:50:55.931Z,40.80
2023-06-29T08:55:58.842Z,40.30
2023-06-29T09:01:01.145Z,40.20
2023-06-29T09:06:04.794Z,40.30
2023-06-29T09:11:06.809Z,40.80
2023-06-29T09:16:10.221Z,40.30
2023-06-29T09:21:12.146Z,39.50
2023-06-29T09:26:14.380Z,40.50
2023-06-29T09:31:16.272Z,39.90
2023-06-29T09:36:18.197Z,38.60
2023-06-29T09:41:20.590Z,38.30
2023-06-29T09:51:28.204Z,37.10
2023-06-29T09:56:31.723Z,37.30
2023-06-29T10:01:33.685Z,37.60
2023-06-29T10:06:43.325Z,36.60
2023-06-29T10:11:48.476Z,36.90
2023-06-29T10:16:54.347Z,37.90
2023-06-29T10:22:04.790Z,37.20
2023-06-29T10:27:08.693Z,34.10
2023-06-29T10:32:10.729Z,32.30
2023-06-29T10:37:34.666Z,30.00
2023-06-29T10:42:39.509Z,28.90
2023-06-29T10:47:42.273Z,28.80
2023-06-29T10:52:44.713Z,28.60
2023-06-29T10:57:56.070Z,27.50
2023-06-29T11:03:00.766Z,27.70
2023-06-29T11:08:02.807Z,28.00
2023-06-29T11:13:11.183Z,27.60
2023-06-29T11:18:13.069Z,27.60
2023-06-29T11:23:14.933Z,27.20
2023-06-29T11:28:17.156Z,27.40
2023-06-29T11:33:33.885Z,27.10
2023-06-29T11:38:36.861Z,27.30
2023-06-29T11:43:38.843Z,27.00
2023-06-29T11:48:40.689Z,27.10
2023-06-29T11:53:43.780Z,26.80
2023-06-29T11:58:45.716Z,26.80
2023-06-29T12:03:50.652Z,26.70
2023-06-29T12:08:53.040Z,26.70
2023-06-29T12:13:55.249Z,26.80
2023-06-29T12:18:57.152Z,26.70
2023-06-29T12:24:04.492Z,26.70
2023-06-29T12:29:06.282Z,26.50
2023-06-29T12:34:08.076Z,26.60
2023-06-29T12:39:09.857Z,26.60
2023-06-29T12:44:11.826Z,26.50
2023-06-29T12:49:13.587Z,26.60
2023-06-29T12:54:15.338Z,26.60
2023-06-29T12:59:17.145Z,26.60
2023-06-29T13:04:19.616Z,26.20
2023-06-29T13:09:21.624Z,26.00
2023-06-29T13:14:24.416Z,26.10
2023-06-29T13:19:27.140Z,26.20
2023-06-29T13:24:28.897Z,26.10
2023-06-29T13:29:31.390Z,26.20
2023-06-29T13:34:34.966Z,25.80
2023-06-29T13:39:38.760Z,26.00
2023-06-29T13:44:40.684Z,26.20
2023-06-29T13:49:42.514Z,26.40
2023-06-29T13:54:44.725Z,26.30
2023-06-29T13:59:48.312Z,26.20
2023-06-29T14:04:50.118Z,25.90
2023-06-29T14:09:51.884Z,25.70
2023-06-29T14:14:53.820Z,25.70
2023-06-29T14:19:56.515Z,25.70
2023-06-29T14:24:58.262Z,25.90
2023-06-29T14:30:00.047Z,25.30
2023-06-29T14:35:02.164Z,25.20
2023-06-29T14:40:04.960Z,25.20
2023-06-29T14:45:07.209Z,24.90
2023-06-29T14:50:11.440Z,24.80
2023-06-29T14:55:13.225Z,24.70
2023-06-29T15:00:15.409Z,25.00
2023-06-29T15:05:17.230Z,25.10
2023-06-29T15:10:19.023Z,25.20
2023-06-29T15:15:21.080Z,25.20
2023-06-29T15:20:23.264Z,25.20
2023-06-29T15:25:25.050Z,25.20
2023-06-29T15:30:26.803Z,24.90
2023-06-29T15:35:28.568Z,24.70
2023-06-29T15:40:30.927Z,25.00
2023-06-29T15:45:32.920Z,24.70
2023-06-29T15:50:34.907Z,24.40
2023-06-29T15:55:36.717Z,24.60
2023-06-29T16:00:39.719Z,24.80
2023-06-29T16:05:41.578Z,24.70
2023-06-29T16:10:43.408Z,24.60
2023-06-29T16:15:45.390Z,24.50
2023-06-29T16:20:47.312Z,24.40
2023-06-29T16:25:49.097Z,24.20
2023-06-29T16:30:51.070Z,24.10
2023-06-29T16:35:53.661Z,24.10
2023-06-29T16:40:55.588Z,24.10
2023-06-29T16:45:57.795Z,23.90
2023-06-29T16:50:59.641Z,23.90
2023-06-29T16:56:01.479Z,23.80
2023-06-29T17:01:03.198Z,23.70
2023-06-29T17:06:05.320Z,23.70
2023-06-29T17:11:08.025Z,23.70
2023-06-29T17:16:09.956Z,23.60
2023-06-29T17:21:11.903Z,23.60
2023-06-29T17:26:13.702Z,23.50
2023-06-29T17:31:15.800Z,23.50
2023-06-29T17:36:17.861Z,23.30
2023-06-29T17:41:20.491Z,23.20
2023-06-29T17:46:22.552Z,23.10
2023-06-29T17:51:24.338Z,23.10
2023-06-29T17:56:26.160Z,23.00
2023-06-29T18:01:28.020Z,22.90
2023-06-29T18:06:29.887Z,22.80
2023-06-29T18:11:31.703Z,22.70
2023-06-29T18:16:33.483Z,22.60
2023-06-29T18:21:37.301Z,22.40
2023-06-29T18:26:39.180Z,22.30
2023-06-29T18:31:41.177Z,22.20
2023-06-29T18:36:43.086Z,22.10
2023-06-29T18:41:45.117Z,22.00
2023-06-29T18:47:05.806Z,21.90
2023-06-29T18:52:08.119Z,21.80
2023-06-29T18:57:13.771Z,21.60
2023-06-29T19:02:16.139Z,21.50
2023-06-29T19:07:18.216Z,21.40
2023-06-29T19:12:20.071Z,21.30
2023-06-29T19:17:22.315Z,21.20
2023-06-29T19:22:24.123Z,21.10
2023-06-29T19:27:26.737Z,21.00
2023-06-29T19:32:28.534Z,20.90
2023-06-29T19:37:30.745Z,20.80
2023-06-29T19:42:32.891Z,20.70
2023-06-29T19:47:34.959Z,20.60
2023-06-29T19:52:36.852Z,20.50
2023-06-29T19:57:38.895Z,20.40
2023-06-29T20:02:40.744Z,20.40
2023-06-29T20:07:42.638Z,20.30
2023-06-29T20:13:46.086Z,20.30
2023-06-29T20:18:48.140Z,20.30
2023-06-29T20:23:52.048Z,20.20
2023-06-29T20:28:54.112Z,20.10
2023-06-29T20:33:55.868Z,20.10
2023-06-29T20:38:57.626Z,20.00
2023-06-29T20:43:59.358Z,19.90
2023-06-29T20:49:01.201Z,19.90
2023-06-29T20:54:02.964Z,19.90
2023-06-29T20:59:04.837Z,19.90
2023-06-29T21:04:06.949Z,19.90
2023-06-29T21:09:09.123Z,19.90
2023-06-29T21:14:10.980Z,19.90
2023-06-29T21:19:13.034Z,19.90
2023-06-29T21:24:15.125Z,19.90
2023-06-29T21:29:34.138Z,19.80
2023-06-29T21:34:43.042Z,19.70
2023-06-29T21:39:44.825Z,19.60
2023-06-29T21:44:47.058Z,19.60
2023-06-29T21:49:48.976Z,19.60
2023-06-29T21:54:50.772Z,19.60
2023-06-29T21:59:52.524Z,19.70
2023-06-29T22:04:54.263Z,19.50
2023-06-29T22:09:56.072Z,19.50
2023-06-29T22:14:57.865Z,19.40
2023-06-29T22:20:29.391Z,19.40
2023-06-29T22:25:31.191Z,19.30
2023-06-29T22:30:33.033Z,19.30
2023-06-29T22:35:34.908Z,19.20
2023-06-29T22:40:37.419Z,19.20
2023-06-29T22:45:39.152Z,19.10
2023-06-29T22:50:41.055Z,19.00
2023-06-29T22:55:43.145Z,19.00
2023-06-29T23:00:45.075Z,19.00
2023-06-29T23:05:47.224Z,19.00
2023-06-29T23:10:50.424Z,18.90
2023-06-29T23:15:52.447Z,18.80
2023-06-29T23:20:56.280Z,18.80
2023-06-29T23:25:59.251Z,18.70
2023-06-29T23:31:01.202Z,18.70
2023-06-29T23:36:03.169Z,18.60
2023-06-29T23:41:05.034Z,18.50
2023-06-29T23:46:07.351Z,18.50
2023-06-29T23:51:09.927Z,18.40
2023-06-29T23:56:13.429Z,18.40
